?

Log in

No account? Create an account
Летное поле
Удача! ... 
8-апр-2012 07:38 pm
Еще вчера просматривая сводку метар где-то в глубине зародилась мыслишка - нужно ехать во Внуково...
Утром сомнений уже не было, полоса нужная, погода прекрасная, а азарт - хорошо подогрет накануне "лайнером мечты":)) 
В очередной раз интуиция не подвела - супер день!  
Сняли то, что давно мечтали поймать, настоящий праздник для споттера )) Обилие отечественной техники не могло не радовать.
И конечно мы были не одни - старожил VKO - kors13 на боевом посту был аж с утра! До нас добрался вместе с солнцем, грамотно выбирая освещение. Уверен, что его пост ещё даст жару! Были ещё знакомые лица, обмороженные на сильном ветру, но вполне довольные)
Ну а пока несколько фото с ходу :))

(как обычно всё кликабельно до 1400)
1. Красавец! Наконец то я его снял))





2.





3.





4.





5.





6.





7. Гроза отечественных, и не только, аппаратов kors13за работой )





8.





9. Гость из Гамбурга, вернее как вежливо поправил urmn  из Брауншвейга - симпотяга ))


Это конечно лишь часть отснятого, продолжение следует ;))

Comments 
8-апр-2012 03:54 pm
красиво
8-апр-2012 04:20 pm
Мне тоже очень понравилось. :)
8-апр-2012 04:32 pm
отличные кадры!)
8-апр-2012 04:43 pm
62й - красавец!
8-апр-2012 04:59 pm
Ил-62, редкость, удача...красавец!
8-апр-2012 05:23 pm
Отличные фото.
Расскажите великий секрет, как определить или где подсмотреть текущую рабочую полосу
8-апр-2012 05:31 pm
Это не секрет, смотрю тут - http://meteo.paraplan.net/metar/
8-апр-2012 05:36 pm
Очень полезная ссылка.
С METAR понятно, но как определить какая полоса в работе ?
Всегда ли садятся против ветра ?
Если ветер перпендикулярный ?
8-апр-2012 05:41 pm
там в коде в конце стоит номер полосы - UUWW 081700Z VRB02MPS 9999 BKN026 04/M00 Q1000 19120060 NOSIG - вот тут полоса - 19120060 - 19-я
8-апр-2012 05:42 pm
В инете не сложно найти полную расшифровку этого кода, тут много чего сказано)))
8-апр-2012 06:11 pm
Вопрос к знатокам
UUEE 081730Z 24004MPS 9999 BKN029 03/01 Q1000 NOSIG RMK 75000062 25000062
Почему 07 полоса написана как 75 ?
8-апр-2012 06:16 pm
Внимательно смотрим инет и находим объяснение и этому - в UUEE две полосы 07! - http://www.x-air.ru/xoops/modules/wiwimod/index.php?page=%D0%E0%F1%F8%E8%F4%F0%EE%E2%FB%E2%E0%E5%EC+%E8%ED%F4%EE%F0%EC%E0%F6%E8%FE+METAR...&back=%C3%EB%E0%E2%ED%E0%FF ))
8-апр-2012 06:37 pm
Спасибо
Не сразу сложил 25+50 =)
8-апр-2012 07:14 pm
Интересные птицы!
(Удалённый комментарий)
8-апр-2012 07:28 pm
Да не за что))
8-апр-2012 07:31 pm
Спасибо, замечательные фото ! Особенно Ту-134 - просто красавцы, очень нравятся.
8-апр-2012 08:01 pm
Вам спасибо за внимание)
8-апр-2012 07:36 pm
прям замечательно)
(Удалённый комментарий)
9-апр-2012 12:53 pm
Летали бы подольше ... )
9-апр-2012 04:44 pm
Здоровские фото! :)
9-апр-2012 08:47 pm
Хороший улов! Поздравляю :)
Страница загружена авг 24 2019, 3:01 am GMT.